createdAt,value
2022-07-28T00:00:37.096Z,19.10
2022-07-28T00:03:22.569Z,19.30
2022-07-28T00:06:08.092Z,19.20
2022-07-28T00:08:54.925Z,18.90
2022-07-28T00:11:50.418Z,18.80
2022-07-28T00:14:40.933Z,19.10
2022-07-28T00:17:26.403Z,19.10
2022-07-28T00:20:12.057Z,19.10
2022-07-28T00:22:57.937Z,19.10
2022-07-28T00:25:43.732Z,19.10
2022-07-28T00:28:29.221Z,19.00
2022-07-28T00:31:15.098Z,19.00
2022-07-28T00:34:00.891Z,19.00
2022-07-28T00:36:46.490Z,18.90
2022-07-28T00:39:31.986Z,18.90
2022-07-28T00:42:19.028Z,18.80
2022-07-28T00:45:05.741Z,18.90
2022-07-28T00:47:51.380Z,18.80
2022-07-28T00:50:40.167Z,18.70
2022-07-28T00:53:26.605Z,18.90
2022-07-28T00:56:13.207Z,18.90
2022-07-28T00:58:59.365Z,19.00
2022-07-28T01:01:45.467Z,18.80
2022-07-28T01:04:31.636Z,18.90
2022-07-28T01:07:43.744Z,18.70
2022-07-28T01:10:55.023Z,18.60
2022-07-28T01:14:00.602Z,18.60
2022-07-28T01:17:21.387Z,18.40
2022-07-28T01:20:14.119Z,18.50
2022-07-28T01:23:11.767Z,18.40
2022-07-28T01:26:54.813Z,18.50
2022-07-28T01:30:05.084Z,18.40
2022-07-28T01:33:04.120Z,18.30
2022-07-28T01:36:04.581Z,18.20
2022-07-28T01:38:51.157Z,18.80
2022-07-28T01:41:38.969Z,18.20
2022-07-28T01:44:28.044Z,18.00
2022-07-28T01:47:15.108Z,18.00
2022-07-28T01:50:05.776Z,18.20
2022-07-28T01:52:52.795Z,18.10
2022-07-28T01:55:39.956Z,18.10
2022-07-28T01:58:26.664Z,17.90
2022-07-28T02:01:14.466Z,17.80
2022-07-28T02:04:02.385Z,17.70
2022-07-28T02:06:49.789Z,18.00
2022-07-28T02:09:36.317Z,18.00
2022-07-28T02:12:23.085Z,18.10
2022-07-28T02:15:11.375Z,17.90
2022-07-28T02:17:57.848Z,17.80
2022-07-28T02:20:43.723Z,17.80
2022-07-28T02:23:55.773Z,17.70
2022-07-28T02:26:49.596Z,17.50
2022-07-28T02:29:51.676Z,17.00
2022-07-28T02:32:54.160Z,16.60
2022-07-28T02:35:50.554Z,16.30
2022-07-28T02:38:41.977Z,15.90
2022-07-28T02:41:29.334Z,15.80
2022-07-28T02:44:18.432Z,15.70
2022-07-28T02:47:09.121Z,15.60
2022-07-28T02:49:56.506Z,15.60
2022-07-28T02:52:44.740Z,15.60
2022-07-28T02:55:31.260Z,15.90
2022-07-28T02:58:21.062Z,16.20
2022-07-28T03:01:07.251Z,16.40
2022-07-28T03:03:55.589Z,16.70
2022-07-28T03:06:42.220Z,16.80
2022-07-28T03:09:28.897Z,16.90
2022-07-28T03:12:15.139Z,16.90
2022-07-28T03:15:01.049Z,16.80
2022-07-28T03:17:47.043Z,16.80
2022-07-28T03:20:33.623Z,16.70
2022-07-28T03:23:20.979Z,16.60
2022-07-28T03:26:15.459Z,16.70
2022-07-28T03:29:02.912Z,16.70
2022-07-28T03:31:50.375Z,16.70
2022-07-28T03:34:36.493Z,16.70
2022-07-28T03:37:28.720Z,17.40
2022-07-28T03:40:14.793Z,16.60
2022-07-28T03:43:06.351Z,16.70
2022-07-28T03:45:52.549Z,16.60
2022-07-28T03:48:38.644Z,16.60
2022-07-28T03:51:25.594Z,16.60
2022-07-28T03:54:11.505Z,16.60
2022-07-28T03:56:57.380Z,16.50
2022-07-28T03:59:42.956Z,16.30
2022-07-28T04:02:28.449Z,16.30
2022-07-28T04:05:15.399Z,16.30
2022-07-28T04:08:01.102Z,16.40
2022-07-28T04:10:47.050Z,16.20
2022-07-28T04:13:32.479Z,16.20
2022-07-28T04:16:18.126Z,16.30
2022-07-28T04:19:03.696Z,16.20
2022-07-28T04:21:48.980Z,16.10
2022-07-28T04:24:34.585Z,16.00
2022-07-28T04:27:20.067Z,16.00
2022-07-28T04:30:08.063Z,16.10
2022-07-28T04:32:55.284Z,16.00
2022-07-28T04:35:40.799Z,16.00
2022-07-28T04:38:26.689Z,16.00
2022-07-28T04:41:12.811Z,16.10
2022-07-28T04:43:59.402Z,16.10
2022-07-28T04:46:45.302Z,16.20
2022-07-28T04:49:30.562Z,16.10
2022-07-28T04:52:22.128Z,16.10
2022-07-28T04:55:08.506Z,16.20
2022-07-28T04:57:53.969Z,16.10
2022-07-28T05:00:40.024Z,16.00
2022-07-28T05:03:25.886Z,16.00
2022-07-28T05:06:11.312Z,16.00
2022-07-28T05:08:57.038Z,15.90
2022-07-28T05:11:43.024Z,15.90
2022-07-28T05:14:28.443Z,15.90
2022-07-28T05:17:13.974Z,15.90
2022-07-28T05:19:59.436Z,15.80
2022-07-28T05:22:50.920Z,15.80
2022-07-28T05:25:37.928Z,15.90
2022-07-28T05:28:23.859Z,15.80
2022-07-28T05:31:09.609Z,15.90
2022-07-28T05:33:55.145Z,15.90
2022-07-28T05:36:41.676Z,15.90
2022-07-28T05:39:27.473Z,15.90
2022-07-28T05:42:13.275Z,15.80
2022-07-28T05:44:58.922Z,15.70
2022-07-28T05:47:46.932Z,15.80
2022-07-28T05:50:32.727Z,15.80
2022-07-28T05:53:19.498Z,15.90
2022-07-28T05:56:05.479Z,15.80
2022-07-28T05:58:51.186Z,15.90
2022-07-28T06:01:38.031Z,15.90
2022-07-28T06:04:27.086Z,15.90
2022-07-28T06:07:13.621Z,15.90
2022-07-28T06:09:59.404Z,16.00
2022-07-28T06:12:50.183Z,16.00
2022-07-28T06:15:35.712Z,16.20
2022-07-28T06:18:22.259Z,16.10
2022-07-28T06:21:07.768Z,16.20
2022-07-28T06:23:53.149Z,16.20
2022-07-28T06:26:44.394Z,16.20
2022-07-28T06:29:30.709Z,16.30
2022-07-28T06:32:17.179Z,16.40
2022-07-28T06:35:02.824Z,16.40
2022-07-28T06:37:50.405Z,16.50
2022-07-28T06:40:36.213Z,16.70
2022-07-28T06:43:21.876Z,16.60
2022-07-28T06:46:07.642Z,16.80
2022-07-28T06:48:53.534Z,16.90
2022-07-28T06:51:38.876Z,17.00
2022-07-28T06:54:24.471Z,17.00
2022-07-28T06:57:10.128Z,17.00
2022-07-28T06:59:56.130Z,17.10
2022-07-28T07:02:42.757Z,17.10
2022-07-28T07:05:32.066Z,17.20
2022-07-28T07:08:17.664Z,17.20
2022-07-28T07:11:03.358Z,17.40
2022-07-28T07:13:48.939Z,17.30
2022-07-28T07:16:35.170Z,17.40
2022-07-28T07:19:21.791Z,17.50
2022-07-28T07:22:07.502Z,17.50
2022-07-28T07:24:56.922Z,17.60
2022-07-28T07:27:44.317Z,17.60
2022-07-28T07:30:29.972Z,17.60
2022-07-28T07:33:15.845Z,17.60
2022-07-28T07:36:01.641Z,17.70
2022-07-28T07:38:47.086Z,17.70
2022-07-28T07:41:32.557Z,17.70
2022-07-28T07:44:18.346Z,17.70
2022-07-28T07:47:04.559Z,17.80
2022-07-28T07:49:50.359Z,17.80
2022-07-28T07:52:35.849Z,17.90
2022-07-28T07:55:21.485Z,17.80
2022-07-28T07:58:06.977Z,17.90
2022-07-28T08:00:53.311Z,18.00
2022-07-28T08:03:39.310Z,18.10
2022-07-28T08:06:26.218Z,18.10
2022-07-28T08:09:12.417Z,18.10
2022-07-28T08:11:58.365Z,18.20
2022-07-28T08:14:43.836Z,18.10
2022-07-28T08:17:33.705Z,18.20
2022-07-28T08:20:19.674Z,18.30
2022-07-28T08:23:05.388Z,18.40
2022-07-28T08:25:51.266Z,18.40
2022-07-28T08:28:37.046Z,18.50
2022-07-28T08:31:22.645Z,18.50
2022-07-28T08:34:26.371Z,18.60
2022-07-28T08:37:13.978Z,18.70
2022-07-28T08:39:59.415Z,18.70
2022-07-28T08:42:52.674Z,18.80
2022-07-28T08:45:42.478Z,18.90
2022-07-28T08:48:31.210Z,18.90
2022-07-28T08:51:18.625Z,18.90
2022-07-28T08:54:06.853Z,18.90
2022-07-28T08:56:53.187Z,18.90
2022-07-28T08:59:39.478Z,19.00
2022-07-28T09:02:27.082Z,19.00
2022-07-28T09:05:13.134Z,19.00
2022-07-28T09:07:59.580Z,19.20
2022-07-28T09:10:45.235Z,19.20
2022-07-28T09:13:31.093Z,19.30
2022-07-28T09:16:16.989Z,19.30
2022-07-28T09:19:02.394Z,19.30
2022-07-28T09:21:48.274Z,19.40
2022-07-28T09:24:38.780Z,19.50
2022-07-28T09:27:24.299Z,19.50
2022-07-28T09:30:10.545Z,19.60
2022-07-28T09:33:40.965Z,19.70
2022-07-28T09:36:22.627Z,19.70
2022-07-28T09:39:08.705Z,19.70
2022-07-28T09:41:58.256Z,19.80
2022-07-28T09:45:00.099Z,19.80
2022-07-28T09:47:50.196Z,19.90
2022-07-28T09:50:35.926Z,19.90
2022-07-28T09:53:22.495Z,20.00
2022-07-28T09:56:09.437Z,20.00
2022-07-28T09:58:58.121Z,20.10
2022-07-28T10:01:55.639Z,20.20
2022-07-28T10:04:42.670Z,20.20
2022-07-28T10:07:30.207Z,20.30
2022-07-28T10:10:20.714Z,20.40
2022-07-28T10:13:06.613Z,20.50
2022-07-28T10:16:11.951Z,20.60
2022-07-28T10:18:59.698Z,20.60
2022-07-28T10:21:48.557Z,20.70
2022-07-28T10:24:37.031Z,20.80
2022-07-28T10:27:27.509Z,20.90
2022-07-28T10:30:14.033Z,21.00
2022-07-28T10:33:02.859Z,21.00
2022-07-28T10:35:55.053Z,21.10
2022-07-28T10:38:41.997Z,21.10
2022-07-28T10:41:33.489Z,21.30
2022-07-28T10:44:20.218Z,21.30
2022-07-28T10:47:18.138Z,21.40
2022-07-28T10:50:05.888Z,21.50
2022-07-28T10:52:58.896Z,21.60
2022-07-28T10:55:58.782Z,21.70
2022-07-28T10:59:04.936Z,21.80
2022-07-28T11:01:50.852Z,21.90
2022-07-28T11:04:56.784Z,21.80
2022-07-28T11:07:42.612Z,21.80
2022-07-28T11:10:29.941Z,21.90
2022-07-28T11:13:35.507Z,22.10
2022-07-28T11:16:24.866Z,22.20
2022-07-28T11:19:40.133Z,22.30
2022-07-28T11:22:29.109Z,22.30
2022-07-28T11:25:18.444Z,22.40
2022-07-28T11:28:07.117Z,22.60
2022-07-28T11:30:53.924Z,22.70
2022-07-28T11:33:54.733Z,22.80
2022-07-28T11:37:07.463Z,23.00
2022-07-28T11:39:53.096Z,23.10
2022-07-28T11:42:38.800Z,23.20
2022-07-28T11:45:26.455Z,23.30
2022-07-28T11:48:25.225Z,23.40
2022-07-28T11:51:13.081Z,23.40
2022-07-28T11:53:58.930Z,23.50
2022-07-28T11:56:45.052Z,23.70
2022-07-28T11:59:47.267Z,23.80
2022-07-28T12:02:35.822Z,23.90
2022-07-28T12:05:22.630Z,24.00
2022-07-28T12:08:10.958Z,24.20
2022-07-28T12:10:56.555Z,24.20
2022-07-28T12:13:42.439Z,24.40
2022-07-28T12:16:29.530Z,24.50
2022-07-28T12:19:16.456Z,24.60
2022-07-28T12:22:02.007Z,24.60
2022-07-28T12:24:57.809Z,24.70
2022-07-28T12:27:45.842Z,24.80
2022-07-28T12:30:32.959Z,24.90
2022-07-28T12:33:29.577Z,25.00
2022-07-28T12:36:18.953Z,25.10
2022-07-28T12:39:10.883Z,25.20
2022-07-28T12:42:09.250Z,25.40
2022-07-28T12:45:03.093Z,25.50
2022-07-28T12:47:48.910Z,25.70
2022-07-28T12:50:41.191Z,25.80
2022-07-28T12:53:27.138Z,25.90
2022-07-28T12:56:12.782Z,26.00
2022-07-28T12:59:10.385Z,26.10
2022-07-28T13:01:57.475Z,26.20
2022-07-28T13:04:48.090Z,26.30
2022-07-28T13:07:34.457Z,26.50
2022-07-28T13:10:21.438Z,26.60
2022-07-28T13:13:07.959Z,26.80
2022-07-28T13:16:22.893Z,27.00
2022-07-28T13:19:20.506Z,27.10
2022-07-28T13:22:09.205Z,27.30
2022-07-28T13:24:59.332Z,27.50
2022-07-28T13:27:49.573Z,27.70
2022-07-28T13:30:38.075Z,27.80
2022-07-28T13:33:24.077Z,28.00
2022-07-28T13:36:10.726Z,28.20
2022-07-28T13:38:56.189Z,28.40
2022-07-28T13:41:57.607Z,28.50
2022-07-28T13:44:44.618Z,28.60
2022-07-28T13:47:35.350Z,28.80
2022-07-28T13:50:21.528Z,28.90
2022-07-28T13:53:25.826Z,29.00
2022-07-28T13:56:11.713Z,29.20
2022-07-28T13:58:57.205Z,29.20
2022-07-28T14:01:49.931Z,29.30
2022-07-28T14:04:35.993Z,29.40
2022-07-28T14:07:25.744Z,29.50
2022-07-28T14:10:11.768Z,29.60
2022-07-28T14:12:59.329Z,29.70
2022-07-28T14:15:46.030Z,29.80
2022-07-28T14:18:31.491Z,29.90
2022-07-28T14:21:17.894Z,30.00
2022-07-28T14:24:04.005Z,30.00
2022-07-28T14:26:50.115Z,30.00
2022-07-28T14:29:35.691Z,30.00
2022-07-28T14:32:21.277Z,30.00
2022-07-28T14:35:07.002Z,30.00
2022-07-28T14:38:41.989Z,30.00
2022-07-28T14:40:58.232Z,30.00
2022-07-28T14:43:43.785Z,29.90
2022-07-28T14:46:29.712Z,29.80
2022-07-28T14:49:15.964Z,29.80
2022-07-28T14:52:01.746Z,29.60
2022-07-28T14:54:48.037Z,29.50
2022-07-28T14:57:49.995Z,29.50
2022-07-28T15:00:39.177Z,29.40
2022-07-28T15:03:34.206Z,29.30
2022-07-28T15:06:21.426Z,29.20
2022-07-28T15:09:07.173Z,29.10
2022-07-28T15:11:53.084Z,29.00
2022-07-28T15:14:38.896Z,29.00
2022-07-28T15:17:24.414Z,28.80
2022-07-28T15:20:10.667Z,28.80
2022-07-28T15:22:56.435Z,28.70
2022-07-28T15:25:44.031Z,28.70
2022-07-28T15:28:29.946Z,28.70
2022-07-28T15:31:17.769Z,28.60
2022-07-28T15:34:06.433Z,28.50
2022-07-28T15:36:54.008Z,28.40
2022-07-28T15:39:44.930Z,28.30
2022-07-28T15:42:30.723Z,28.20
2022-07-28T15:45:16.406Z,28.10
2022-07-28T15:48:02.403Z,28.10
2022-07-28T15:50:48.858Z,28.10
2022-07-28T15:53:35.226Z,28.00
2022-07-28T15:56:20.987Z,27.90
2022-07-28T15:59:07.433Z,27.90
2022-07-28T16:01:53.428Z,27.90
2022-07-28T16:04:49.017Z,27.90
2022-07-28T16:07:44.845Z,27.80
2022-07-28T16:10:30.903Z,27.80
2022-07-28T16:13:22.752Z,27.80
2022-07-28T16:16:22.188Z,27.80
2022-07-28T16:19:20.156Z,27.80
2022-07-28T16:22:14.831Z,27.70
2022-07-28T16:25:00.461Z,27.60
2022-07-28T16:27:48.614Z,27.40
2022-07-28T16:30:35.637Z,27.30
2022-07-28T16:33:21.562Z,27.10
2022-07-28T16:36:07.397Z,26.90
2022-07-28T16:38:52.856Z,26.80
2022-07-28T16:41:46.633Z,26.70
2022-07-28T16:44:33.704Z,26.60
2022-07-28T16:47:19.586Z,26.50
2022-07-28T16:50:05.210Z,26.50
2022-07-28T16:52:55.661Z,26.50
2022-07-28T16:55:46.963Z,26.40
2022-07-28T16:58:32.941Z,26.40
2022-07-28T17:01:18.839Z,26.40
2022-07-28T17:04:05.413Z,26.30
2022-07-28T17:06:50.982Z,26.30
2022-07-28T17:09:36.521Z,26.30
2022-07-28T17:12:22.143Z,26.30
2022-07-28T17:15:20.086Z,26.20
2022-07-28T17:18:08.340Z,26.30
2022-07-28T17:20:53.987Z,26.30
2022-07-28T17:23:39.720Z,26.20
2022-07-28T17:29:31.205Z,26.20
2022-07-28T17:32:16.841Z,26.20
2022-07-28T17:35:02.485Z,26.10
2022-07-28T17:37:48.103Z,26.10
2022-07-28T17:40:33.806Z,26.10
2022-07-28T17:43:21.265Z,26.10
2022-07-28T17:46:10.400Z,26.00
2022-07-28T17:48:56.911Z,25.90
2022-07-28T17:51:43.288Z,25.80
2022-07-28T17:54:48.964Z,25.70
2022-07-28T17:57:37.704Z,25.70
2022-07-28T18:00:25.220Z,25.50
2022-07-28T18:03:11.448Z,25.40
2022-07-28T18:05:58.048Z,25.40
2022-07-28T18:08:44.725Z,25.30
2022-07-28T18:11:30.517Z,25.30
2022-07-28T18:14:17.953Z,25.20
2022-07-28T18:17:04.149Z,25.10
2022-07-28T18:19:49.688Z,25.00
2022-07-28T18:22:35.407Z,24.90
2022-07-28T18:25:21.249Z,24.70
2022-07-28T18:28:07.808Z,24.70
2022-07-28T18:30:53.832Z,24.70
2022-07-28T18:33:40.489Z,24.70
2022-07-28T18:36:26.484Z,24.50
2022-07-28T18:39:12.483Z,24.50
2022-07-28T18:41:58.233Z,24.50
2022-07-28T18:44:43.923Z,24.40
2022-07-28T18:47:29.352Z,24.40
2022-07-28T18:50:28.022Z,24.30
2022-07-28T18:53:17.428Z,24.30
2022-07-28T18:56:02.928Z,24.20
2022-07-28T18:58:51.693Z,24.20
2022-07-28T19:01:37.397Z,24.20
2022-07-28T19:04:23.023Z,24.50
2022-07-28T19:07:08.845Z,24.10
2022-07-28T19:09:54.603Z,24.00
2022-07-28T19:12:40.412Z,24.00
2022-07-28T19:15:26.236Z,24.00
2022-07-28T19:18:12.246Z,23.90
2022-07-28T19:20:57.947Z,23.90
2022-07-28T19:23:43.592Z,23.90
2022-07-28T19:26:29.833Z,23.90
2022-07-28T19:29:15.669Z,23.80
2022-07-28T19:32:04.421Z,23.70
2022-07-28T19:34:50.090Z,23.70
2022-07-28T19:37:38.878Z,23.60
2022-07-28T19:40:25.575Z,23.60
2022-07-28T19:43:11.397Z,23.50
2022-07-28T19:46:00.079Z,23.50
2022-07-28T19:48:45.878Z,23.50
2022-07-28T19:51:31.365Z,23.40
2022-07-28T19:54:20.968Z,23.40
2022-07-28T19:57:12.307Z,23.40
2022-07-28T20:00:02.148Z,23.40
2022-07-28T20:02:57.248Z,23.40
2022-07-28T20:05:43.018Z,23.30
2022-07-28T20:08:28.659Z,23.30
2022-07-28T20:11:14.736Z,23.20
2022-07-28T20:14:01.209Z,23.20
2022-07-28T20:16:46.846Z,23.20
2022-07-28T20:19:35.280Z,23.20
2022-07-28T20:22:20.814Z,23.10
2022-07-28T20:25:09.402Z,23.10
2022-07-28T20:27:55.870Z,23.30
2022-07-28T20:30:41.435Z,23.30
2022-07-28T20:33:26.754Z,23.20
2022-07-28T20:36:12.315Z,23.10
2022-07-28T20:38:57.776Z,23.00
2022-07-28T20:41:43.298Z,23.00
2022-07-28T20:44:29.920Z,23.00
2022-07-28T20:47:15.975Z,23.00
2022-07-28T20:50:01.717Z,23.00
2022-07-28T20:52:48.751Z,22.80
2022-07-28T20:55:34.416Z,22.80
2022-07-28T20:58:20.412Z,22.60
2022-07-28T21:01:06.141Z,22.50
2022-07-28T21:03:52.585Z,22.50
2022-07-28T21:06:38.436Z,22.60
2022-07-28T21:09:24.218Z,22.60
2022-07-28T21:12:09.930Z,22.60
2022-07-28T21:14:55.473Z,22.70
2022-07-28T21:17:40.937Z,22.60
2022-07-28T21:20:26.614Z,22.50
2022-07-28T21:23:12.490Z,22.40
2022-07-28T21:25:58.433Z,22.40
2022-07-28T21:29:02.374Z,22.40
2022-07-28T21:32:04.306Z,22.40
2022-07-28T21:34:51.242Z,22.40
2022-07-28T21:37:36.827Z,22.50
2022-07-28T21:40:22.295Z,22.40
2022-07-28T21:43:08.218Z,22.40
2022-07-28T21:45:53.675Z,22.40
2022-07-28T21:48:39.178Z,22.40
2022-07-28T21:51:26.413Z,22.40
2022-07-28T21:54:12.457Z,22.40
2022-07-28T21:56:58.073Z,22.50
2022-07-28T21:59:43.948Z,22.40
2022-07-28T22:02:33.949Z,22.40
2022-07-28T22:05:20.424Z,22.40
2022-07-28T22:08:06.214Z,22.40
2022-07-28T22:10:51.880Z,22.40
2022-07-28T22:13:37.770Z,22.40
2022-07-28T22:16:24.230Z,22.40
2022-07-28T22:19:11.931Z,22.40
2022-07-28T22:21:59.111Z,22.40
2022-07-28T22:24:45.663Z,22.40
2022-07-28T22:27:31.131Z,22.40
2022-07-28T22:30:16.841Z,22.30
2022-07-28T22:33:02.489Z,22.30
2022-07-28T22:35:48.241Z,22.30
2022-07-28T22:38:34.018Z,22.20
2022-07-28T22:41:19.780Z,22.20
2022-07-28T22:44:05.738Z,22.10
2022-07-28T22:46:51.832Z,22.10
2022-07-28T22:49:37.465Z,22.00
2022-07-28T22:52:27.231Z,22.00
2022-07-28T22:55:12.965Z,22.00
2022-07-28T22:58:05.720Z,21.90
2022-07-28T23:00:51.275Z,21.90
2022-07-28T23:03:37.557Z,21.90
2022-07-28T23:06:23.932Z,21.90
2022-07-28T23:09:09.465Z,21.90
2022-07-28T23:11:55.736Z,21.90
2022-07-28T23:14:41.697Z,21.90
2022-07-28T23:17:27.229Z,21.80
2022-07-28T23:20:12.719Z,21.80
2022-07-28T23:22:58.104Z,21.80
2022-07-28T23:25:43.797Z,21.70
2022-07-28T23:28:29.601Z,20.20
2022-07-28T23:31:15.329Z,21.70
2022-07-28T23:34:01.425Z,21.60
2022-07-28T23:36:47.977Z,21.50
2022-07-28T23:39:33.618Z,21.50
2022-07-28T23:42:18.967Z,21.50
2022-07-28T23:45:04.933Z,21.60
2022-07-28T23:47:53.876Z,21.60
2022-07-28T23:50:42.057Z,21.50
2022-07-28T23:53:27.653Z,21.50
2022-07-28T23:56:14.773Z,21.40
2022-07-28T23:59:00.950Z,21.40
